sensor_id;sensor_type;location;lat;lon;timestamp;temperature;humidity
37242;DHT22;23135;51.078;12.108;2024-01-30T00:02:14;4.50;99.90
37242;DHT22;23135;51.078;12.108;2024-01-30T00:04:40;4.50;99.90
37242;DHT22;23135;51.078;12.108;2024-01-30T00:07:06;4.50;99.90
37242;DHT22;23135;51.078;12.108;2024-01-30T00:09:31;4.40;99.90
37242;DHT22;23135;51.078;12.108;2024-01-30T00:11:57;4.40;99.90
37242;DHT22;23135;51.078;12.108;2024-01-30T00:14:23;4.20;99.90
37242;DHT22;23135;51.078;12.108;2024-01-30T00:16:48;4.20;99.90
37242;DHT22;23135;51.078;12.108;2024-01-30T00:19:14;4.30;99.90
37242;DHT22;23135;51.078;12.108;2024-01-30T00:21:39;4.30;99.90
37242;DHT22;23135;51.078;12.108;2024-01-30T00:24:05;4.20;99.90
37242;DHT22;23135;51.078;12.108;2024-01-30T00:26:31;4.10;99.90
37242;DHT22;23135;51.078;12.108;2024-01-30T00:28:56;4.10;99.90
37242;DHT22;23135;51.078;12.108;2024-01-30T00:31:22;4.00;99.90
37242;DHT22;23135;51.078;12.108;2024-01-30T00:33:47;3.90;99.90
37242;DHT22;23135;51.078;12.108;2024-01-30T00:36:13;4.00;99.90
37242;DHT22;23135;51.078;12.108;2024-01-30T00:38:38;4.00;99.90
37242;DHT22;23135;51.078;12.108;2024-01-30T00:41:07;4.10;99.90
37242;DHT22;23135;51.078;12.108;2024-01-30T00:43:33;4.30;99.90
37242;DHT22;23135;51.078;12.108;2024-01-30T00:45:59;4.40;99.90
37242;DHT22;23135;51.078;12.108;2024-01-30T00:48:24;4.40;99.90
37242;DHT22;23135;51.078;12.108;2024-01-30T00:50:50;4.50;99.90
37242;DHT22;23135;51.078;12.108;2024-01-30T00:53:15;4.50;99.90
37242;DHT22;23135;51.078;12.108;2024-01-30T00:55:41;4.50;99.90
37242;DHT22;23135;51.078;12.108;2024-01-30T00:58:07;4.50;99.90
37242;DHT22;23135;51.078;12.108;2024-01-30T01:00:33;4.50;99.90
37242;DHT22;23135;51.078;12.108;2024-01-30T01:02:59;4.50;99.90
37242;DHT22;23135;51.078;12.108;2024-01-30T01:05:24;4.50;99.90
37242;DHT22;23135;51.078;12.108;2024-01-30T01:07:50;4.40;99.90
37242;DHT22;23135;51.078;12.108;2024-01-30T01:10:19;4.40;99.90
37242;DHT22;23135;51.078;12.108;2024-01-30T01:12:45;4.30;99.90
37242;DHT22;23135;51.078;12.108;2024-01-30T01:15:11;4.30;99.90
37242;DHT22;23135;51.078;12.108;2024-01-30T01:17:38;4.20;99.90
37242;DHT22;23135;51.078;12.108;2024-01-30T01:20:04;4.20;99.90
37242;DHT22;23135;51.078;12.108;2024-01-30T01:22:33;4.10;99.90
37242;DHT22;23135;51.078;12.108;2024-01-30T01:25:00;4.10;99.90
37242;DHT22;23135;51.078;12.108;2024-01-30T01:27:25;4.00;99.90
37242;DHT22;23135;51.078;12.108;2024-01-30T01:29:52;3.90;99.90
37242;DHT22;23135;51.078;12.108;2024-01-30T01:32:17;3.90;99.90
37242;DHT22;23135;51.078;12.108;2024-01-30T01:34:43;3.90;99.90
37242;DHT22;23135;51.078;12.108;2024-01-30T01:37:09;3.90;99.90
37242;DHT22;23135;51.078;12.108;2024-01-30T01:39:34;4.00;99.90
37242;DHT22;23135;51.078;12.108;2024-01-30T01:42:00;4.00;99.90
37242;DHT22;23135;51.078;12.108;2024-01-30T01:44:26;4.00;99.90
37242;DHT22;23135;51.078;12.108;2024-01-30T01:46:52;3.90;99.90
37242;DHT22;23135;51.078;12.108;2024-01-30T01:49:19;3.80;99.90
37242;DHT22;23135;51.078;12.108;2024-01-30T01:51:45;3.80;99.90
37242;DHT22;23135;51.078;12.108;2024-01-30T01:54:12;3.70;99.90
37242;DHT22;23135;51.078;12.108;2024-01-30T01:56:39;3.70;99.90
37242;DHT22;23135;51.078;12.108;2024-01-30T01:59:07;3.60;99.90
37242;DHT22;23135;51.078;12.108;2024-01-30T02:01:34;3.60;99.90
37242;DHT22;23135;51.078;12.108;2024-01-30T02:04:01;3.60;99.90
37242;DHT22;23135;51.078;12.108;2024-01-30T02:06:27;3.60;99.90
37242;DHT22;23135;51.078;12.108;2024-01-30T02:08:53;3.60;99.90
37242;DHT22;23135;51.078;12.108;2024-01-30T02:11:20;3.70;99.90
37242;DHT22;23135;51.078;12.108;2024-01-30T02:13:46;3.70;99.90
37242;DHT22;23135;51.078;12.108;2024-01-30T02:16:11;3.70;99.90
37242;DHT22;23135;51.078;12.108;2024-01-30T02:18:37;3.70;99.90
37242;DHT22;23135;51.078;12.108;2024-01-30T02:21:07;3.70;99.90
37242;DHT22;23135;51.078;12.108;2024-01-30T02:23:33;3.80;99.90
37242;DHT22;23135;51.078;12.108;2024-01-30T02:26:00;3.80;99.90
37242;DHT22;23135;51.078;12.108;2024-01-30T02:28:25;3.70;99.90
37242;DHT22;23135;51.078;12.108;2024-01-30T02:30:51;3.80;99.90
37242;DHT22;23135;51.078;12.108;2024-01-30T02:33:16;3.90;99.90
37242;DHT22;23135;51.078;12.108;2024-01-30T02:35:42;4.10;99.90
37242;DHT22;23135;51.078;12.108;2024-01-30T02:38:08;4.20;99.90
37242;DHT22;23135;51.078;12.108;2024-01-30T02:40:33;4.20;99.90
37242;DHT22;23135;51.078;12.108;2024-01-30T02:43:02;4.10;99.90
37242;DHT22;23135;51.078;12.108;2024-01-30T02:45:28;4.10;99.90
37242;DHT22;23135;51.078;12.108;2024-01-30T02:47:53;4.20;99.90
37242;DHT22;23135;51.078;12.108;2024-01-30T02:50:19;4.30;99.90
37242;DHT22;23135;51.078;12.108;2024-01-30T02:52:44;4.20;99.90
37242;DHT22;23135;51.078;12.108;2024-01-30T02:55:10;4.20;99.90
37242;DHT22;23135;51.078;12.108;2024-01-30T02:57:36;4.30;99.90
37242;DHT22;23135;51.078;12.108;2024-01-30T03:00:02;4.30;99.90
37242;DHT22;23135;51.078;12.108;2024-01-30T03:02:29;4.30;99.90
37242;DHT22;23135;51.078;12.108;2024-01-30T03:04:55;4.30;99.90
37242;DHT22;23135;51.078;12.108;2024-01-30T03:07:20;4.30;99.90
37242;DHT22;23135;51.078;12.108;2024-01-30T03:09:46;4.30;99.90
37242;DHT22;23135;51.078;12.108;2024-01-30T03:12:11;4.20;99.90
37242;DHT22;23135;51.078;12.108;2024-01-30T03:14:37;4.20;99.90
37242;DHT22;23135;51.078;12.108;2024-01-30T03:17:03;4.20;99.90
37242;DHT22;23135;51.078;12.108;2024-01-30T03:19:28;4.20;99.90
37242;DHT22;23135;51.078;12.108;2024-01-30T03:21:54;4.20;99.90
37242;DHT22;23135;51.078;12.108;2024-01-30T03:24:20;4.20;99.90
37242;DHT22;23135;51.078;12.108;2024-01-30T03:26:45;4.20;99.90
37242;DHT22;23135;51.078;12.108;2024-01-30T03:29:11;4.30;99.90
37242;DHT22;23135;51.078;12.108;2024-01-30T03:31:37;4.20;99.90
37242;DHT22;23135;51.078;12.108;2024-01-30T03:34:02;4.20;99.90
37242;DHT22;23135;51.078;12.108;2024-01-30T03:36:28;4.20;99.90
37242;DHT22;23135;51.078;12.108;2024-01-30T03:38:54;4.20;99.90
37242;DHT22;23135;51.078;12.108;2024-01-30T03:41:19;4.10;99.90
37242;DHT22;23135;51.078;12.108;2024-01-30T03:43:46;4.20;99.90
37242;DHT22;23135;51.078;12.108;2024-01-30T03:46:12;4.20;99.90
37242;DHT22;23135;51.078;12.108;2024-01-30T03:48:38;4.20;99.90
37242;DHT22;23135;51.078;12.108;2024-01-30T03:51:04;4.20;99.90
37242;DHT22;23135;51.078;12.108;2024-01-30T03:53:30;4.20;99.90
37242;DHT22;23135;51.078;12.108;2024-01-30T03:55:55;4.20;99.90
37242;DHT22;23135;51.078;12.108;2024-01-30T03:58:21;4.30;99.90
37242;DHT22;23135;51.078;12.108;2024-01-30T04:00:47;4.30;99.90
37242;DHT22;23135;51.078;12.108;2024-01-30T04:03:12;4.30;99.90
37242;DHT22;23135;51.078;12.108;2024-01-30T04:05:38;4.30;99.90
37242;DHT22;23135;51.078;12.108;2024-01-30T04:08:04;4.30;99.90
37242;DHT22;23135;51.078;12.108;2024-01-30T04:10:30;4.20;99.90
37242;DHT22;23135;51.078;12.108;2024-01-30T04:12:55;4.20;99.90
37242;DHT22;23135;51.078;12.108;2024-01-30T04:15:21;4.20;99.90
37242;DHT22;23135;51.078;12.108;2024-01-30T04:17:47;4.20;99.90
37242;DHT22;23135;51.078;12.108;2024-01-30T04:20:15;4.20;99.90
37242;DHT22;23135;51.078;12.108;2024-01-30T04:22:44;4.30;99.90
37242;DHT22;23135;51.078;12.108;2024-01-30T04:25:13;4.20;99.90
37242;DHT22;23135;51.078;12.108;2024-01-30T04:27:39;4.20;99.90
37242;DHT22;23135;51.078;12.108;2024-01-30T04:30:05;4.20;99.90
37242;DHT22;23135;51.078;12.108;2024-01-30T04:32:32;4.20;99.90
37242;DHT22;23135;51.078;12.108;2024-01-30T04:34:57;4.10;99.90
37242;DHT22;23135;51.078;12.108;2024-01-30T04:37:23;4.10;99.90
37242;DHT22;23135;51.078;12.108;2024-01-30T04:39:49;4.10;99.90
37242;DHT22;23135;51.078;12.108;2024-01-30T04:42:15;4.20;99.90
37242;DHT22;23135;51.078;12.108;2024-01-30T04:44:40;4.20;99.90
37242;DHT22;23135;51.078;12.108;2024-01-30T04:47:06;4.20;99.90
37242;DHT22;23135;51.078;12.108;2024-01-30T04:49:34;4.10;99.90
37242;DHT22;23135;51.078;12.108;2024-01-30T04:52:00;4.10;99.90
37242;DHT22;23135;51.078;12.108;2024-01-30T04:54:25;4.20;99.90
37242;DHT22;23135;51.078;12.108;2024-01-30T04:56:51;4.20;99.90
37242;DHT22;23135;51.078;12.108;2024-01-30T04:59:16;4.20;99.90
37242;DHT22;23135;51.078;12.108;2024-01-30T05:01:42;4.20;99.90
37242;DHT22;23135;51.078;12.108;2024-01-30T05:04:08;4.20;99.90
37242;DHT22;23135;51.078;12.108;2024-01-30T05:06:34;4.10;99.90
37242;DHT22;23135;51.078;12.108;2024-01-30T05:09:00;4.10;99.90
37242;DHT22;23135;51.078;12.108;2024-01-30T05:11:25;4.00;99.90
37242;DHT22;23135;51.078;12.108;2024-01-30T05:13:51;3.90;99.90
37242;DHT22;23135;51.078;12.108;2024-01-30T05:16:16;3.90;99.90
37242;DHT22;23135;51.078;12.108;2024-01-30T05:18:42;3.90;99.90
37242;DHT22;23135;51.078;12.108;2024-01-30T05:21:07;3.90;99.90
37242;DHT22;23135;51.078;12.108;2024-01-30T05:23:33;3.80;99.90
37242;DHT22;23135;51.078;12.108;2024-01-30T05:25:59;3.90;99.90
37242;DHT22;23135;51.078;12.108;2024-01-30T05:28:26;3.90;99.90
37242;DHT22;23135;51.078;12.108;2024-01-30T05:30:52;3.80;99.90
37242;DHT22;23135;51.078;12.108;2024-01-30T05:33:17;3.80;99.90
37242;DHT22;23135;51.078;12.108;2024-01-30T05:35:43;3.80;99.90
37242;DHT22;23135;51.078;12.108;2024-01-30T05:38:08;3.80;99.90
37242;DHT22;23135;51.078;12.108;2024-01-30T05:40:34;3.80;99.90
37242;DHT22;23135;51.078;12.108;2024-01-30T05:42:59;3.70;99.90
37242;DHT22;23135;51.078;12.108;2024-01-30T05:45:26;3.80;99.90
37242;DHT22;23135;51.078;12.108;2024-01-30T05:47:52;3.70;99.90
37242;DHT22;23135;51.078;12.108;2024-01-30T05:50:19;3.70;99.90
37242;DHT22;23135;51.078;12.108;2024-01-30T05:52:45;3.70;99.90
37242;DHT22;23135;51.078;12.108;2024-01-30T05:55:12;3.70;99.90
37242;DHT22;23135;51.078;12.108;2024-01-30T05:57:38;3.80;99.90
37242;DHT22;23135;51.078;12.108;2024-01-30T06:00:04;3.80;99.90
37242;DHT22;23135;51.078;12.108;2024-01-30T06:02:31;3.80;99.90
37242;DHT22;23135;51.078;12.108;2024-01-30T06:04:56;3.90;99.90
37242;DHT22;23135;51.078;12.108;2024-01-30T06:07:22;3.90;99.90
37242;DHT22;23135;51.078;12.108;2024-01-30T06:09:48;4.00;99.90
37242;DHT22;23135;51.078;12.108;2024-01-30T06:12:13;4.00;99.90
37242;DHT22;23135;51.078;12.108;2024-01-30T06:14:39;3.80;99.90
37242;DHT22;23135;51.078;12.108;2024-01-30T06:17:05;3.70;99.90
37242;DHT22;23135;51.078;12.108;2024-01-30T06:19:31;3.60;99.90
37242;DHT22;23135;51.078;12.108;2024-01-30T06:21:56;3.60;99.90
37242;DHT22;23135;51.078;12.108;2024-01-30T06:24:22;3.60;99.90
37242;DHT22;23135;51.078;12.108;2024-01-30T06:26:47;3.60;99.90
37242;DHT22;23135;51.078;12.108;2024-01-30T06:29:13;3.60;99.90
37242;DHT22;23135;51.078;12.108;2024-01-30T06:31:43;3.60;99.90
37242;DHT22;23135;51.078;12.108;2024-01-30T06:34:09;3.60;99.90
37242;DHT22;23135;51.078;12.108;2024-01-30T06:36:35;3.80;99.90
37242;DHT22;23135;51.078;12.108;2024-01-30T06:39:02;3.90;99.90
37242;DHT22;23135;51.078;12.108;2024-01-30T06:41:28;3.90;99.90
37242;DHT22;23135;51.078;12.108;2024-01-30T06:43:53;4.00;99.90
37242;DHT22;23135;51.078;12.108;2024-01-30T06:46:19;4.00;99.90
37242;DHT22;23135;51.078;12.108;2024-01-30T06:48:44;4.00;99.90
37242;DHT22;23135;51.078;12.108;2024-01-30T06:51:11;4.10;99.90
37242;DHT22;23135;51.078;12.108;2024-01-30T06:53:37;4.20;99.90
37242;DHT22;23135;51.078;12.108;2024-01-30T06:56:03;4.30;99.90
37242;DHT22;23135;51.078;12.108;2024-01-30T06:58:29;4.30;99.90
37242;DHT22;23135;51.078;12.108;2024-01-30T07:00:55;4.30;99.90
37242;DHT22;23135;51.078;12.108;2024-01-30T07:03:20;4.30;99.90
37242;DHT22;23135;51.078;12.108;2024-01-30T07:05:47;4.30;99.90
37242;DHT22;23135;51.078;12.108;2024-01-30T07:08:12;4.30;99.90
37242;DHT22;23135;51.078;12.108;2024-01-30T07:10:38;4.40;99.90
37242;DHT22;23135;51.078;12.108;2024-01-30T07:13:03;4.40;99.90
37242;DHT22;23135;51.078;12.108;2024-01-30T07:15:32;4.30;99.90
37242;DHT22;23135;51.078;12.108;2024-01-30T07:17:57;4.40;99.90
37242;DHT22;23135;51.078;12.108;2024-01-30T07:20:23;4.50;99.90
37242;DHT22;23135;51.078;12.108;2024-01-30T07:22:49;4.50;99.90
37242;DHT22;23135;51.078;12.108;2024-01-30T07:25:14;4.60;99.90
37242;DHT22;23135;51.078;12.108;2024-01-30T07:27:40;4.60;99.90
37242;DHT22;23135;51.078;12.108;2024-01-30T07:30:06;4.60;99.90
37242;DHT22;23135;51.078;12.108;2024-01-30T07:32:32;4.70;99.90
37242;DHT22;23135;51.078;12.108;2024-01-30T07:34:57;4.70;99.90
37242;DHT22;23135;51.078;12.108;2024-01-30T07:37:23;4.70;99.90
37242;DHT22;23135;51.078;12.108;2024-01-30T07:39:49;4.80;99.90
37242;DHT22;23135;51.078;12.108;2024-01-30T07:42:15;4.80;99.90
37242;DHT22;23135;51.078;12.108;2024-01-30T07:44:41;4.80;99.90
37242;DHT22;23135;51.078;12.108;2024-01-30T07:47:07;4.80;99.90
37242;DHT22;23135;51.078;12.108;2024-01-30T07:49:33;4.80;99.90
37242;DHT22;23135;51.078;12.108;2024-01-30T07:51:58;4.80;99.90
37242;DHT22;23135;51.078;12.108;2024-01-30T07:54:25;4.80;99.90
37242;DHT22;23135;51.078;12.108;2024-01-30T07:56:50;4.80;99.90
37242;DHT22;23135;51.078;12.108;2024-01-30T07:59:16;4.90;99.90
37242;DHT22;23135;51.078;12.108;2024-01-30T08:01:42;4.90;99.90
37242;DHT22;23135;51.078;12.108;2024-01-30T08:04:07;5.00;99.90
37242;DHT22;23135;51.078;12.108;2024-01-30T08:06:33;5.10;99.90
37242;DHT22;23135;51.078;12.108;2024-01-30T08:08:58;5.10;99.90
37242;DHT22;23135;51.078;12.108;2024-01-30T08:11:24;5.20;99.90
37242;DHT22;23135;51.078;12.108;2024-01-30T08:13:55;5.30;99.90
37242;DHT22;23135;51.078;12.108;2024-01-30T08:16:21;5.30;99.90
37242;DHT22;23135;51.078;12.108;2024-01-30T08:18:46;5.40;99.90
37242;DHT22;23135;51.078;12.108;2024-01-30T08:21:12;5.50;99.90
37242;DHT22;23135;51.078;12.108;2024-01-30T08:23:41;5.60;99.90
37242;DHT22;23135;51.078;12.108;2024-01-30T08:26:08;5.70;99.90
37242;DHT22;23135;51.078;12.108;2024-01-30T08:28:33;5.80;99.90
37242;DHT22;23135;51.078;12.108;2024-01-30T08:30:59;5.90;99.90
37242;DHT22;23135;51.078;12.108;2024-01-30T08:33:24;6.00;99.90
37242;DHT22;23135;51.078;12.108;2024-01-30T08:35:50;6.10;99.90
37242;DHT22;23135;51.078;12.108;2024-01-30T08:38:15;6.20;99.90
37242;DHT22;23135;51.078;12.108;2024-01-30T08:40:41;6.30;99.90
37242;DHT22;23135;51.078;12.108;2024-01-30T08:43:07;6.30;99.90
37242;DHT22;23135;51.078;12.108;2024-01-30T08:45:34;6.30;99.90
37242;DHT22;23135;51.078;12.108;2024-01-30T08:48:00;6.40;99.90
37242;DHT22;23135;51.078;12.108;2024-01-30T08:50:25;6.50;99.90
37242;DHT22;23135;51.078;12.108;2024-01-30T08:52:51;6.50;99.90
37242;DHT22;23135;51.078;12.108;2024-01-30T08:55:16;6.60;99.90
37242;DHT22;23135;51.078;12.108;2024-01-30T08:57:42;6.60;99.90
37242;DHT22;23135;51.078;12.108;2024-01-30T09:00:08;6.70;99.90
37242;DHT22;23135;51.078;12.108;2024-01-30T09:02:35;6.80;99.90
37242;DHT22;23135;51.078;12.108;2024-01-30T09:05:01;6.80;99.90
37242;DHT22;23135;51.078;12.108;2024-01-30T09:07:27;6.90;99.90
37242;DHT22;23135;51.078;12.108;2024-01-30T09:09:52;7.00;99.90
37242;DHT22;23135;51.078;12.108;2024-01-30T09:12:18;7.00;99.90
37242;DHT22;23135;51.078;12.108;2024-01-30T09:14:43;7.00;99.90
37242;DHT22;23135;51.078;12.108;2024-01-30T09:17:09;7.10;99.90
37242;DHT22;23135;51.078;12.108;2024-01-30T09:19:35;7.30;99.90
37242;DHT22;23135;51.078;12.108;2024-01-30T09:22:00;7.40;99.90
37242;DHT22;23135;51.078;12.108;2024-01-30T09:24:27;7.50;99.90
37242;DHT22;23135;51.078;12.108;2024-01-30T09:26:52;7.50;99.90
37242;DHT22;23135;51.078;12.108;2024-01-30T09:29:18;7.70;99.90
37242;DHT22;23135;51.078;12.108;2024-01-30T09:31:45;7.70;99.90
37242;DHT22;23135;51.078;12.108;2024-01-30T09:34:10;7.80;99.90
37242;DHT22;23135;51.078;12.108;2024-01-30T09:36:36;7.90;99.90
37242;DHT22;23135;51.078;12.108;2024-01-30T09:39:02;8.00;99.90
37242;DHT22;23135;51.078;12.108;2024-01-30T09:41:30;8.10;99.90
37242;DHT22;23135;51.078;12.108;2024-01-30T09:43:57;8.20;99.90
37242;DHT22;23135;51.078;12.108;2024-01-30T09:46:26;8.30;99.90
37242;DHT22;23135;51.078;12.108;2024-01-30T09:48:54;8.30;99.90
37242;DHT22;23135;51.078;12.108;2024-01-30T09:51:21;8.40;99.90
37242;DHT22;23135;51.078;12.108;2024-01-30T09:53:48;8.40;99.90
37242;DHT22;23135;51.078;12.108;2024-01-30T09:56:14;8.40;99.90
37242;DHT22;23135;51.078;12.108;2024-01-30T09:58:40;8.40;99.90
37242;DHT22;23135;51.078;12.108;2024-01-30T10:01:05;8.40;99.90
37242;DHT22;23135;51.078;12.108;2024-01-30T10:03:31;8.40;99.90
37242;DHT22;23135;51.078;12.108;2024-01-30T10:05:57;8.50;99.90
37242;DHT22;23135;51.078;12.108;2024-01-30T10:08:23;8.50;99.90
37242;DHT22;23135;51.078;12.108;2024-01-30T10:10:49;8.50;99.90
37242;DHT22;23135;51.078;12.108;2024-01-30T10:13:15;8.50;99.90
37242;DHT22;23135;51.078;12.108;2024-01-30T10:15:41;8.60;99.90
37242;DHT22;23135;51.078;12.108;2024-01-30T10:18:08;8.60;99.90
37242;DHT22;23135;51.078;12.108;2024-01-30T10:20:35;8.70;99.90
37242;DHT22;23135;51.078;12.108;2024-01-30T10:23:01;8.70;99.90
37242;DHT22;23135;51.078;12.108;2024-01-30T10:25:27;8.70;99.90
37242;DHT22;23135;51.078;12.108;2024-01-30T10:27:56;8.80;99.90
37242;DHT22;23135;51.078;12.108;2024-01-30T10:30:22;8.80;99.90
37242;DHT22;23135;51.078;12.108;2024-01-30T10:32:48;8.90;99.90
37242;DHT22;23135;51.078;12.108;2024-01-30T10:35:14;9.00;99.90
37242;DHT22;23135;51.078;12.108;2024-01-30T10:37:43;9.10;99.90
37242;DHT22;23135;51.078;12.108;2024-01-30T10:40:11;9.10;99.90
37242;DHT22;23135;51.078;12.108;2024-01-30T10:42:45;9.20;99.90
37242;DHT22;23135;51.078;12.108;2024-01-30T10:45:14;9.40;99.90
37242;DHT22;23135;51.078;12.108;2024-01-30T10:47:50;9.50;99.90
37242;DHT22;23135;51.078;12.108;2024-01-30T10:50:16;9.60;99.90
37242;DHT22;23135;51.078;12.108;2024-01-30T10:52:42;9.80;99.90
37242;DHT22;23135;51.078;12.108;2024-01-30T10:55:10;10.00;99.90
37242;DHT22;23135;51.078;12.108;2024-01-30T10:57:36;10.20;99.90
37242;DHT22;23135;51.078;12.108;2024-01-30T11:00:07;10.20;99.90
37242;DHT22;23135;51.078;12.108;2024-01-30T11:02:40;10.30;99.90
37242;DHT22;23135;51.078;12.108;2024-01-30T11:05:07;10.40;99.90
37242;DHT22;23135;51.078;12.108;2024-01-30T11:07:34;10.50;99.90
37242;DHT22;23135;51.078;12.108;2024-01-30T11:10:03;10.60;99.90
37242;DHT22;23135;51.078;12.108;2024-01-30T11:12:33;10.70;99.90
37242;DHT22;23135;51.078;12.108;2024-01-30T11:15:12;10.90;99.90
37242;DHT22;23135;51.078;12.108;2024-01-30T11:20:16;11.10;99.90
37242;DHT22;23135;51.078;12.108;2024-01-30T11:22:44;11.20;99.90
37242;DHT22;23135;51.078;12.108;2024-01-30T11:25:14;11.50;99.90
37242;DHT22;23135;51.078;12.108;2024-01-30T11:27:44;11.50;99.90
37242;DHT22;23135;51.078;12.108;2024-01-30T11:30:11;11.50;99.90
37242;DHT22;23135;51.078;12.108;2024-01-30T11:32:46;11.50;99.90
37242;DHT22;23135;51.078;12.108;2024-01-30T11:35:11;11.50;99.90
37242;DHT22;23135;51.078;12.108;2024-01-30T11:37:37;11.40;99.90
37242;DHT22;23135;51.078;12.108;2024-01-30T11:40:07;11.40;99.90
37242;DHT22;23135;51.078;12.108;2024-01-30T11:42:34;11.40;99.90
37242;DHT22;23135;51.078;12.108;2024-01-30T11:45:02;11.30;99.90
37242;DHT22;23135;51.078;12.108;2024-01-30T11:47:28;11.30;99.90
37242;DHT22;23135;51.078;12.108;2024-01-30T11:49:54;11.30;99.90
37242;DHT22;23135;51.078;12.108;2024-01-30T11:52:19;11.30;99.90
37242;DHT22;23135;51.078;12.108;2024-01-30T11:54:45;11.40;99.90
37242;DHT22;23135;51.078;12.108;2024-01-30T11:57:11;11.40;99.90
37242;DHT22;23135;51.078;12.108;2024-01-30T11:59:36;11.60;99.90
37242;DHT22;23135;51.078;12.108;2024-01-30T12:02:02;11.70;99.90
37242;DHT22;23135;51.078;12.108;2024-01-30T12:04:28;11.70;99.90
37242;DHT22;23135;51.078;12.108;2024-01-30T12:06:54;11.60;99.90
37242;DHT22;23135;51.078;12.108;2024-01-30T12:09:20;11.60;99.90
37242;DHT22;23135;51.078;12.108;2024-01-30T12:11:48;11.70;99.90
37242;DHT22;23135;51.078;12.108;2024-01-30T12:14:14;11.80;99.90
37242;DHT22;23135;51.078;12.108;2024-01-30T12:16:40;11.70;99.90
37242;DHT22;23135;51.078;12.108;2024-01-30T12:19:06;11.80;99.90
37242;DHT22;23135;51.078;12.108;2024-01-30T12:21:33;11.70;99.90
37242;DHT22;23135;51.078;12.108;2024-01-30T12:23:59;11.70;99.90
37242;DHT22;23135;51.078;12.108;2024-01-30T12:26:25;11.70;99.90
37242;DHT22;23135;51.078;12.108;2024-01-30T12:28:54;11.80;99.90
37242;DHT22;23135;51.078;12.108;2024-01-30T12:31:26;12.00;99.90
37242;DHT22;23135;51.078;12.108;2024-01-30T12:33:52;12.10;99.90
37242;DHT22;23135;51.078;12.108;2024-01-30T12:36:18;12.20;99.90
37242;DHT22;23135;51.078;12.108;2024-01-30T12:38:43;12.40;99.90
37242;DHT22;23135;51.078;12.108;2024-01-30T12:41:09;12.40;99.90
37242;DHT22;23135;51.078;12.108;2024-01-30T12:43:35;12.40;99.90
37242;DHT22;23135;51.078;12.108;2024-01-30T12:46:02;12.40;99.90
37242;DHT22;23135;51.078;12.108;2024-01-30T12:48:28;12.30;99.90
37242;DHT22;23135;51.078;12.108;2024-01-30T12:50:55;12.20;99.90
37242;DHT22;23135;51.078;12.108;2024-01-30T12:53:21;12.10;99.90
37242;DHT22;23135;51.078;12.108;2024-01-30T12:55:47;12.10;99.90
37242;DHT22;23135;51.078;12.108;2024-01-30T12:58:12;12.10;99.90
37242;DHT22;23135;51.078;12.108;2024-01-30T13:00:38;12.10;99.90
37242;DHT22;23135;51.078;12.108;2024-01-30T13:03:04;12.10;99.90
37242;DHT22;23135;51.078;12.108;2024-01-30T13:05:29;12.10;99.90
37242;DHT22;23135;51.078;12.108;2024-01-30T13:07:55;12.00;99.90
37242;DHT22;23135;51.078;12.108;2024-01-30T13:10:22;12.00;99.90
37242;DHT22;23135;51.078;12.108;2024-01-30T13:12:48;12.00;99.90
37242;DHT22;23135;51.078;12.108;2024-01-30T13:15:13;12.10;99.90
37242;DHT22;23135;51.078;12.108;2024-01-30T13:17:39;12.10;99.90
37242;DHT22;23135;51.078;12.108;2024-01-30T13:20:05;12.10;99.90
37242;DHT22;23135;51.078;12.108;2024-01-30T13:22:33;12.10;99.90
37242;DHT22;23135;51.078;12.108;2024-01-30T13:24:59;12.10;99.90
37242;DHT22;23135;51.078;12.108;2024-01-30T13:27:24;12.10;99.90
37242;DHT22;23135;51.078;12.108;2024-01-30T13:29:50;12.10;99.90
37242;DHT22;23135;51.078;12.108;2024-01-30T13:32:15;12.10;99.90
37242;DHT22;23135;51.078;12.108;2024-01-30T13:34:41;12.00;99.90
37242;DHT22;23135;51.078;12.108;2024-01-30T13:37:08;12.20;99.90
37242;DHT22;23135;51.078;12.108;2024-01-30T13:39:34;12.30;99.90
37242;DHT22;23135;51.078;12.108;2024-01-30T13:41:59;12.40;99.90
37242;DHT22;23135;51.078;12.108;2024-01-30T13:44:25;12.30;99.90
37242;DHT22;23135;51.078;12.108;2024-01-30T13:46:50;12.20;99.90
37242;DHT22;23135;51.078;12.108;2024-01-30T13:49:16;12.20;99.90
37242;DHT22;23135;51.078;12.108;2024-01-30T13:51:42;12.10;99.90
37242;DHT22;23135;51.078;12.108;2024-01-30T13:54:07;12.10;99.90
37242;DHT22;23135;51.078;12.108;2024-01-30T13:56:33;12.10;99.90
37242;DHT22;23135;51.078;12.108;2024-01-30T13:58:59;12.10;99.90
37242;DHT22;23135;51.078;12.108;2024-01-30T14:01:26;12.10;99.90
37242;DHT22;23135;51.078;12.108;2024-01-30T14:03:52;12.10;99.90
37242;DHT22;23135;51.078;12.108;2024-01-30T14:06:18;12.10;99.90
37242;DHT22;23135;51.078;12.108;2024-01-30T14:08:43;12.00;99.90
37242;DHT22;23135;51.078;12.108;2024-01-30T14:11:09;11.90;99.90
37242;DHT22;23135;51.078;12.108;2024-01-30T14:13:35;11.90;99.90
37242;DHT22;23135;51.078;12.108;2024-01-30T14:16:00;11.80;99.90
37242;DHT22;23135;51.078;12.108;2024-01-30T14:18:26;11.80;99.90
37242;DHT22;23135;51.078;12.108;2024-01-30T14:20:52;11.70;99.90
37242;DHT22;23135;51.078;12.108;2024-01-30T14:23:17;11.70;99.90
37242;DHT22;23135;51.078;12.108;2024-01-30T14:25:43;11.60;99.90
37242;DHT22;23135;51.078;12.108;2024-01-30T14:28:08;11.60;99.90
37242;DHT22;23135;51.078;12.108;2024-01-30T14:30:34;11.50;99.90
37242;DHT22;23135;51.078;12.108;2024-01-30T14:33:01;11.40;99.90
37242;DHT22;23135;51.078;12.108;2024-01-30T14:35:26;11.40;99.90
37242;DHT22;23135;51.078;12.108;2024-01-30T14:37:52;11.30;99.90
37242;DHT22;23135;51.078;12.108;2024-01-30T14:40:18;11.30;99.90
37242;DHT22;23135;51.078;12.108;2024-01-30T14:42:44;11.30;99.90
37242;DHT22;23135;51.078;12.108;2024-01-30T14:45:10;11.30;99.90
37242;DHT22;23135;51.078;12.108;2024-01-30T14:47:37;11.30;99.90
37242;DHT22;23135;51.078;12.108;2024-01-30T14:50:03;11.20;99.90
37242;DHT22;23135;51.078;12.108;2024-01-30T14:52:29;11.20;99.90
37242;DHT22;23135;51.078;12.108;2024-01-30T14:54:55;11.20;99.90
37242;DHT22;23135;51.078;12.108;2024-01-30T14:57:20;11.10;99.90
37242;DHT22;23135;51.078;12.108;2024-01-30T14:59:46;11.10;99.90
37242;DHT22;23135;51.078;12.108;2024-01-30T15:02:13;11.00;99.90
37242;DHT22;23135;51.078;12.108;2024-01-30T15:04:40;10.90;99.90
37242;DHT22;23135;51.078;12.108;2024-01-30T15:07:05;10.90;99.90
37242;DHT22;23135;51.078;12.108;2024-01-30T15:09:31;10.80;99.90
37242;DHT22;23135;51.078;12.108;2024-01-30T15:11:57;10.70;99.90
37242;DHT22;23135;51.078;12.108;2024-01-30T15:14:23;10.60;99.90
37242;DHT22;23135;51.078;12.108;2024-01-30T15:16:49;10.60;99.90
37242;DHT22;23135;51.078;12.108;2024-01-30T15:19:15;10.50;99.90
37242;DHT22;23135;51.078;12.108;2024-01-30T15:21:41;10.50;99.90
37242;DHT22;23135;51.078;12.108;2024-01-30T15:24:06;10.50;99.90